METAR Data
IDs: Format: Raw Decoded Include TAF

Data at: 0014 UTC 01 Mar 2021

URRP 010000Z 29002MPS 9999 FEW/// BKN022 02/01 Q1020 R23/CLRD70 TEMPO 0300 FG BKN001 RMK QFE757/1009